OPLA/LHE METAR and TAF weather

Enter ICAO airport designator
Station Type Date Time Source
OPLA METAR 2018/12/15 02:25 UTC NOAA

OPLA 150225Z 00000KT 2000 BR NSC 06/04 Q1023 RMK QFE997 RMK A30.19


Station Type Date Time Source
OPLA Decoded METAR 2018/12/15 02:25 UTC NOAA

Lahore Airport, Pakistan (OPLA) 31-31N 074-24E 217M
Dec 14, 2018 - 09:25 PM EST / 2018.12.15 0225 UTC
Wind: Calm:0
Visibility: 1 mile(s):0
Weather: mist
Temperature: 42 F (6 C)
Dew Point: 39 F (4 C)
Relative Humidity: 86%
Pressure (altimeter): 30.21 in. Hg (1023 hPa)
ob: OPLA 150225Z 00000KT 2000 BR NSC 06/04 Q1023 RMK QFE997 RMK A30.19
cycle: 2

Station Type Date Time Source
OPLA TAF 2018/12/14 18:03 UTC NOAA

TAF TAF OPLA 141545Z 1418/1524 VRB02KT 4000 FU NSC TX21/1510Z TN05/1501Z
TEMPO 1501/1505 1000 BR
BECMG 1505/1507 31004KT 2500 FU
FM15070031005KT 4000 FU NSC
FM151300 VRB02KT 3000 FU NSC


Example: see airport list